Time;durP1;ratioP1;P1;durP2;ratioP2;P2;SDS_P1;SDS_P2;PMS_P1;PMS_P2;Temp;Humidity;BMP_temperature;BMP_pressure;BME280_temperature;BME280_humidity;BME280_pressure;Samples;Min_cycle;Max_cycle;Signal;HPM_P1;HPM_P2
2024/03/17 00:00:15;;;;;;;13.48;8.35;;;;;;;;;;5001830;28;20066;-81
2024/03/17 00:02:41;;;;;;;12.60;7.72;;;;;;;;;;5004318;28;20104;-81
2024/03/17 00:05:07;;;;;;;12.82;8.80;;;;;;;;;;5005238;28;20046;-81
2024/03/17 00:07:32;;;;;;;10.65;7.65;;;;;;;;;;5004847;28;20178;-81
2024/03/17 00:09:58;;;;;;;12.45;8.68;;;;;;;;;;5004831;28;20105;-81
2024/03/17 00:12:23;;;;;;;12.55;8.45;;;;;;;;;;5004440;28;20100;-80
2024/03/17 00:14:49;;;;;;;12.52;8.82;;;;;;;;;;4989921;28;20137;-81
2024/03/17 00:17:15;;;;;;;14.18;8.70;;;;;;;;;;5005774;28;20080;-81
2024/03/17 00:19:40;;;;;;;13.88;9.00;;;;;;;;;;5021912;28;20073;-81
2024/03/17 00:22:08;;;;;;;13.82;8.88;;;;;;;;;;5021253;28;20058;-81
2024/03/17 00:24:34;;;;;;;14.10;9.15;;;;;;;;;;5021430;28;20058;-82
2024/03/17 00:27:01;;;;;;;12.93;8.02;;;;;;;;;;5021191;28;20057;-81
2024/03/17 00:29:27;;;;;;;13.23;8.18;;;;;;;;;;5004740;28;20042;-81
2024/03/17 00:31:53;;;;;;;11.02;8.18;;;;;;;;;;5002535;28;20050;-81
2024/03/17 00:34:19;;;;;;;14.13;8.25;;;;;;;;;;4988873;28;20420;-81
2024/03/17 00:36:45;;;;;;;14.25;8.30;;;;;;;;;;5005107;28;20058;-81
2024/03/17 00:39:11;;;;;;;11.88;8.57;;;;;;;;;;5005041;28;20514;-81
2024/03/17 00:41:36;;;;;;;15.85;9.63;;;;;;;;;;5005482;28;20058;-81
2024/03/17 00:44:03;;;;;;;14.57;8.75;;;;;;;;;;5021237;28;20133;-82
2024/03/17 00:46:28;;;;;;;13.38;8.15;;;;;;;;;;5007442;28;20053;-81
2024/03/17 00:48:54;;;;;;;12.98;8.73;;;;;;;;;;5006005;28;20058;-81
2024/03/17 00:51:19;;;;;;;12.63;9.15;;;;;;;;;;5021421;28;20054;-82
2024/03/17 00:53:45;;;;;;;12.68;8.52;;;;;;;;;;5004889;28;20072;-82
2024/03/17 00:56:10;;;;;;;13.32;9.68;;;;;;;;;;5012463;28;20179;-80
2024/03/17 00:58:36;;;;;;;14.70;8.90;;;;;;;;;;5004739;28;20096;-81
2024/03/17 01:01:01;;;;;;;13.30;9.10;;;;;;;;;;5002821;28;20094;-82
2024/03/17 01:03:30;;;;;;;14.10;9.38;;;;;;;;;;5004872;28;20088;-81
2024/03/17 01:05:55;;;;;;;15.10;9.13;;;;;;;;;;5001419;28;20051;-81
2024/03/17 01:08:21;;;;;;;15.73;9.82;;;;;;;;;;5001866;28;20089;-81
2024/03/17 01:10:49;;;;;;;13.55;8.60;;;;;;;;;;4996884;28;20100;-81
2024/03/17 01:13:15;;;;;;;19.52;8.40;;;;;;;;;;5019612;28;20073;-81
2024/03/17 01:15:40;;;;;;;35.42;10.15;;;;;;;;;;4987924;28;20046;-81
2024/03/17 01:18:06;;;;;;;16.88;9.85;;;;;;;;;;5020052;28;20050;-81
2024/03/17 01:20:33;;;;;;;29.73;10.52;;;;;;;;;;5003872;28;20049;-81
2024/03/17 01:22:58;;;;;;;17.67;9.43;;;;;;;;;;5020431;28;20104;-81
2024/03/17 01:25:25;;;;;;;15.88;8.88;;;;;;;;;;5021280;28;20050;-82
2024/03/17 01:27:51;;;;;;;12.07;8.18;;;;;;;;;;5004734;28;20046;-81
2024/03/17 01:30:17;;;;;;;12.45;8.40;;;;;;;;;;5004884;28;20069;-81
2024/03/17 01:32:42;;;;;;;14.55;8.57;;;;;;;;;;5020993;28;20424;-81
2024/03/17 01:35:08;;;;;;;14.40;8.38;;;;;;;;;;5020773;28;20056;-82
2024/03/17 01:37:33;;;;;;;13.57;7.90;;;;;;;;;;5037033;28;20061;-81
2024/03/17 01:39:59;;;;;;;11.77;7.38;;;;;;;;;;5003867;28;20084;-81
2024/03/17 01:42:25;;;;;;;15.23;8.55;;;;;;;;;;5020106;28;20124;-80
2024/03/17 01:44:50;;;;;;;13.85;8.00;;;;;;;;;;5000497;28;20065;-82
2024/03/17 01:47:18;;;;;;;12.18;7.68;;;;;;;;;;5019481;28;20050;-81
2024/03/17 01:49:50;;;;;;;11.40;8.05;;;;;;;;;;5037060;28;20058;-81
2024/03/17 01:52:15;;;;;;;11.32;7.65;;;;;;;;;;5037095;28;20423;-81
2024/03/17 01:54:41;;;;;;;13.00;7.80;;;;;;;;;;5037023;28;20064;-81
2024/03/17 01:57:07;;;;;;;15.00;7.53;;;;;;;;;;5004191;28;20053;-80
2024/03/17 01:59:32;;;;;;;11.50;7.93;;;;;;;;;;5004359;28;20064;-81
2024/03/17 02:01:58;;;;;;;10.52;6.90;;;;;;;;;;5003028;28;20060;-82
2024/03/17 02:04:23;;;;;;;10.07;7.32;;;;;;;;;;5004502;28;20310;-81
2024/03/17 02:06:49;;;;;;;11.13;7.72;;;;;;;;;;5004217;28;20049;-81
2024/03/17 02:09:15;;;;;;;11.00;7.30;;;;;;;;;;4996617;28;20065;-81
2024/03/17 02:11:40;;;;;;;9.88;7.20;;;;;;;;;;4996615;28;20111;-81
2024/03/17 02:14:07;;;;;;;10.38;7.10;;;;;;;;;;4997053;28;20101;-80
2024/03/17 02:16:33;;;;;;;10.27;7.00;;;;;;;;;;4999409;28;20065;-81
2024/03/17 02:18:59;;;;;;;11.27;6.95;;;;;;;;;;5011095;28;20428;-81
2024/03/17 02:21:27;;;;;;;13.70;7.78;;;;;;;;;;4981659;28;20060;-81
2024/03/17 02:23:52;;;;;;;13.90;7.80;;;;;;;;;;4998236;28;20058;-81
2024/03/17 02:26:18;;;;;;;11.68;7.47;;;;;;;;;;5005666;28;20093;-80
2024/03/17 02:28:44;;;;;;;24.80;7.70;;;;;;;;;;5020837;28;20053;-80
2024/03/17 02:31:10;;;;;;;18.60;7.43;;;;;;;;;;5019122;28;20054;-80
2024/03/17 02:33:37;;;;;;;29.35;7.25;;;;;;;;;;5018185;28;20054;-81
2024/03/17 02:36:03;;;;;;;37.25;7.75;;;;;;;;;;5015227;28;20038;-80
2024/03/17 02:41:13;;;;;;;20.48;7.45;;;;;;;;;;5037581;28;20033;-80
2024/03/17 02:43:39;;;;;;;22.77;7.53;;;;;;;;;;5005113;28;20551;-81
2024/03/17 02:46:23;;;;;;;31.75;8.20;;;;;;;;;;4999138;28;20512;-81
2024/03/17 02:48:52;;;;;;;17.42;7.13;;;;;;;;;;5014018;28;20033;-80
2024/03/17 02:51:19;;;;;;;12.10;7.07;;;;;;;;;;5020719;28;20045;-80
2024/03/17 02:53:45;;;;;;;13.02;6.95;;;;;;;;;;5017708;28;20437;-80
2024/03/17 02:56:10;;;;;;;25.02;8.10;;;;;;;;;;5011544;28;20182;-80
2024/03/17 02:58:37;;;;;;;42.03;8.18;;;;;;;;;;5013360;28;20112;-81
2024/03/17 03:01:04;;;;;;;11.68;6.97;;;;;;;;;;4991904;28;20054;-81
2024/03/17 03:03:30;;;;;;;18.52;7.85;;;;;;;;;;5000917;28;20050;-79
2024/03/17 03:05:56;;;;;;;68.03;9.80;;;;;;;;;;5016093;28;20046;-80
2024/03/17 03:08:23;;;;;;;18.83;8.18;;;;;;;;;;5038123;28;20050;-81
2024/03/17 03:10:48;;;;;;;17.80;8.35;;;;;;;;;;4992902;28;20208;-80
2024/03/17 03:13:14;;;;;;;30.27;8.38;;;;;;;;;;4996144;28;20142;-80
2024/03/17 03:15:40;;;;;;;27.65;8.90;;;;;;;;;;4993450;28;20081;-80
2024/03/17 03:18:05;;;;;;;20.52;8.10;;;;;;;;;;4979607;28;20049;-81
2024/03/17 03:20:31;;;;;;;26.30;8.38;;;;;;;;;;4995469;28;20058;-81
2024/03/17 03:22:56;;;;;;;17.58;7.85;;;;;;;;;;4980069;28;20084;-81
2024/03/17 03:25:22;;;;;;;21.25;8.00;;;;;;;;;;4992597;28;20154;-81
2024/03/17 03:27:48;;;;;;;40.00;8.40;;;;;;;;;;5016888;28;20053;-81
2024/03/17 03:30:15;;;;;;;37.78;9.23;;;;;;;;;;5016907;28;20046;-81
2024/03/17 03:32:42;;;;;;;17.25;8.32;;;;;;;;;;4995522;28;20058;-81
2024/03/17 03:35:08;;;;;;;15.38;7.65;;;;;;;;;;5001732;28;20054;-81
2024/03/17 03:37:33;;;;;;;16.33;8.23;;;;;;;;;;4997608;28;20058;-81
2024/03/17 03:39:59;;;;;;;20.17;8.75;;;;;;;;;;4997970;28;20065;-80
2024/03/17 03:42:24;;;;;;;13.05;8.70;;;;;;;;;;4993499;28;20069;-82
2024/03/17 03:44:50;;;;;;;15.32;9.55;;;;;;;;;;5000137;28;20508;-81
2024/03/17 03:47:15;;;;;;;16.17;9.43;;;;;;;;;;5018044;28;20076;-81
2024/03/17 03:49:41;;;;;;;24.17;9.25;;;;;;;;;;4995720;28;20114;-81
2024/03/17 03:52:06;;;;;;;13.48;8.82;;;;;;;;;;5001295;28;20236;-80
2024/03/17 03:54:33;;;;;;;17.83;8.85;;;;;;;;;;4997716;28;20058;-81
2024/03/17 03:56:58;;;;;;;37.72;9.88;;;;;;;;;;4982163;28;20054;-81
2024/03/17 03:59:24;;;;;;;24.67;8.35;;;;;;;;;;5010051;28;20065;-81
2024/03/17 04:01:50;;;;;;;28.88;9.20;;;;;;;;;;4998964;28;20065;-81
2024/03/17 04:04:16;;;;;;;19.30;8.60;;;;;;;;;;5001727;28;20061;-81
2024/03/17 04:06:41;;;;;;;51.10;8.40;;;;;;;;;;5018333;28;20050;-81
2024/03/17 04:09:09;;;;;;;41.63;7.95;;;;;;;;;;5017885;28;20042;-80
2024/03/17 04:11:34;;;;;;;17.75;7.47;;;;;;;;;;5018041;28;20054;-81
2024/03/17 04:14:00;;;;;;;25.77;9.07;;;;;;;;;;4998091;28;20138;-81
2024/03/17 04:16:26;;;;;;;51.63;8.13;;;;;;;;;;5018335;28;20357;-81
2024/03/17 04:18:52;;;;;;;15.57;8.10;;;;;;;;;;4998103;28;20209;-81
2024/03/17 04:21:17;;;;;;;14.18;6.90;;;;;;;;;;5001060;28;20120;-81
2024/03/17 04:23:43;;;;;;;32.78;8.00;;;;;;;;;;5017623;28;20062;-81
2024/03/17 04:26:09;;;;;;;18.63;7.30;;;;;;;;;;5003263;28;20109;-81
2024/03/17 04:28:35;;;;;;;27.50;7.55;;;;;;;;;;4998864;28;20054;-81
2024/03/17 04:31:05;;;;;;;20.40;7.75;;;;;;;;;;5005288;28;20108;-81
2024/03/17 04:33:31;;;;;;;20.77;8.38;;;;;;;;;;5021162;28;20054;-81
2024/03/17 04:35:57;;;;;;;23.45;8.10;;;;;;;;;;5021825;28;20108;-81
2024/03/17 04:38:22;;;;;;;12.80;7.15;;;;;;;;;;5001157;28;20428;-81
2024/03/17 04:40:48;;;;;;;26.77;7.72;;;;;;;;;;4996909;28;20054;-81
2024/03/17 04:43:14;;;;;;;27.50;8.25;;;;;;;;;;5003728;28;20076;-80
2024/03/17 04:45:40;;;;;;;14.15;8.52;;;;;;;;;;5005605;28;20534;-81
2024/03/17 04:48:07;;;;;;;21.75;8.82;;;;;;;;;;5005013;28;20050;-81
2024/03/17 04:50:32;;;;;;;28.60;7.63;;;;;;;;;;5004960;28;20061;-81
2024/03/17 04:52:59;;;;;;;36.95;8.50;;;;;;;;;;5004333;28;20050;-81
2024/03/17 04:55:24;;;;;;;14.32;8.45;;;;;;;;;;5004623;28;20064;-81
2024/03/17 04:57:50;;;;;;;35.60;7.82;;;;;;;;;;5004681;28;20054;-81
2024/03/17 05:00:17;;;;;;;30.95;7.78;;;;;;;;;;5005284;28;20065;-82
2024/03/17 05:02:44;;;;;;;89.38;8.85;;;;;;;;;;5014623;28;20057;-82
2024/03/17 05:05:10;;;;;;;14.77;7.38;;;;;;;;;;5033327;28;20054;-82
2024/03/17 05:07:36;;;;;;;37.97;7.43;;;;;;;;;;5026961;28;20046;-81
2024/03/17 05:10:02;;;;;;;29.50;7.80;;;;;;;;;;5017001;28;20077;-80
2024/03/17 05:12:28;;;;;;;42.25;7.93;;;;;;;;;;5010924;28;20474;-81
2024/03/17 05:14:53;;;;;;;102.97;8.27;;;;;;;;;;5002829;28;20046;-82
2024/03/17 05:17:19;;;;;;;10.88;6.22;;;;;;;;;;5005556;28;20405;-82
2024/03/17 05:19:44;;;;;;;37.53;7.22;;;;;;;;;;5005385;28;20053;-81
2024/03/17 05:22:10;;;;;;;58.75;6.40;;;;;;;;;;5005797;28;20062;-81
2024/03/17 05:24:36;;;;;;;66.03;6.65;;;;;;;;;;5006098;28;20061;-82
2024/03/17 05:27:02;;;;;;;13.93;6.00;;;;;;;;;;5005261;28;20099;-82
2024/03/17 05:29:27;;;;;;;100.97;7.28;;;;;;;;;;5038328;28;20050;-82
2024/03/17 05:31:53;;;;;;;30.15;5.88;;;;;;;;;;5021722;28;20053;-82
2024/03/17 05:34:18;;;;;;;37.72;6.82;;;;;;;;;;5039101;28;20054;-81
2024/03/17 05:36:44;;;;;;;20.75;6.57;;;;;;;;;;5039013;28;20057;-82
2024/03/17 05:39:09;;;;;;;23.15;6.32;;;;;;;;;;5006847;28;20058;-82
2024/03/17 05:41:35;;;;;;;54.53;6.90;;;;;;;;;;5038394;28;20058;-81
2024/03/17 05:44:03;;;;;;;19.80;6.70;;;;;;;;;;5038089;28;20054;-81
2024/03/17 05:46:28;;;;;;;25.83;7.05;;;;;;;;;;5038547;28;20065;-81
2024/03/17 05:48:54;;;;;;;18.08;6.75;;;;;;;;;;5022047;28;20130;-82
2024/03/17 05:51:20;;;;;;;28.88;6.90;;;;;;;;;;5056755;28;20049;-82
2024/03/17 05:53:45;;;;;;;12.73;6.57;;;;;;;;;;4990840;28;20130;-82
2024/03/17 05:56:12;;;;;;;13.60;6.78;;;;;;;;;;5023281;28;20105;-81
2024/03/17 05:58:40;;;;;;;36.00;16.67;;;;;;;;;;5040060;28;20054;-82
2024/03/17 06:01:11;;;;;;;39.00;22.92;;;;;;;;;;4990287;28;20046;-82
2024/03/17 06:03:36;;;;;;;54.15;34.72;;;;;;;;;;5037694;28;20054;-82
2024/03/17 06:06:03;;;;;;;27.23;19.65;;;;;;;;;;5038559;28;20176;-81
2024/03/17 06:08:29;;;;;;;21.83;10.93;;;;;;;;;;5005372;28;20050;-82
2024/03/17 06:10:56;;;;;;;12.95;8.68;;;;;;;;;;4988936;28;20101;-82
2024/03/17 06:13:22;;;;;;;13.10;7.75;;;;;;;;;;5005258;28;20116;-82
2024/03/17 06:15:48;;;;;;;18.80;6.45;;;;;;;;;;5005361;28;20049;-82
2024/03/17 06:18:14;;;;;;;16.20;6.85;;;;;;;;;;5003851;28;20054;-82
2024/03/17 06:20:42;;;;;;;18.45;7.43;;;;;;;;;;5004914;28;20061;-81
2024/03/17 06:23:07;;;;;;;12.07;6.55;;;;;;;;;;5005971;28;20069;-82
2024/03/17 06:25:38;;;;;;;23.30;7.57;;;;;;;;;;5023783;28;20176;-82
2024/03/17 06:28:04;;;;;;;13.65;7.00;;;;;;;;;;5003525;28;20050;-81
2024/03/17 06:30:29;;;;;;;11.18;7.53;;;;;;;;;;5006003;28;20052;-81
2024/03/17 06:32:55;;;;;;;26.23;6.80;;;;;;;;;;5006452;28;20049;-82
2024/03/17 06:35:25;;;;;;;14.88;6.32;;;;;;;;;;5021192;28;20433;-82
2024/03/17 06:37:52;;;;;;;9.43;6.35;;;;;;;;;;5021533;28;20054;-82
2024/03/17 06:40:18;;;;;;;11.95;6.60;;;;;;;;;;5004471;28;20084;-82
2024/03/17 06:42:43;;;;;;;12.45;7.38;;;;;;;;;;5009565;28;20058;-82
2024/03/17 06:45:09;;;;;;;22.70;6.22;;;;;;;;;;5005586;28;20062;-82
2024/03/17 06:47:37;;;;;;;11.57;5.93;;;;;;;;;;4999645;28;20444;-82
2024/03/17 06:50:09;;;;;;;58.80;7.03;;;;;;;;;;4999862;28;20054;-82
2024/03/17 06:52:35;;;;;;;7.45;5.63;;;;;;;;;;5003013;28;20068;-82
2024/03/17 06:55:01;;;;;;;14.55;5.75;;;;;;;;;;5000809;28;20129;-82
2024/03/17 06:57:26;;;;;;;8.88;5.93;;;;;;;;;;5001397;28;20054;-82
2024/03/17 06:59:52;;;;;;;8.05;5.47;;;;;;;;;;4996749;28;20058;-82
2024/03/17 07:02:19;;;;;;;8.45;5.85;;;;;;;;;;5019753;28;20061;-82
2024/03/17 07:04:48;;;;;;;14.30;5.97;;;;;;;;;;4988652;28;20058;-82
2024/03/17 07:07:14;;;;;;;8.27;5.70;;;;;;;;;;5003493;28;20053;-82
2024/03/17 07:09:40;;;;;;;10.88;4.97;;;;;;;;;;5004653;28;20129;-82
2024/03/17 07:12:09;;;;;;;6.82;4.93;;;;;;;;;;5004737;28;20060;-82
2024/03/17 07:14:34;;;;;;;11.38;6.55;;;;;;;;;;5020402;28;20300;-82
2024/03/17 07:17:00;;;;;;;8.57;5.40;;;;;;;;;;4987123;28;20066;-82
2024/03/17 07:19:25;;;;;;;7.15;5.55;;;;;;;;;;5036448;28;20054;-82
2024/03/17 07:21:51;;;;;;;8.30;6.35;;;;;;;;;;5019808;28;20109;-82
2024/03/17 07:24:17;;;;;;;9.50;6.07;;;;;;;;;;5036462;28;20153;-81
2024/03/17 07:26:42;;;;;;;12.13;6.10;;;;;;;;;;4988048;28;20058;-81
2024/03/17 07:29:11;;;;;;;7.00;5.63;;;;;;;;;;5036266;28;20053;-81
2024/03/17 07:31:36;;;;;;;8.88;6.35;;;;;;;;;;5005316;28;20058;-80
2024/03/17 07:34:02;;;;;;;8.57;6.03;;;;;;;;;;5026310;28;20122;-81
2024/03/17 07:36:28;;;;;;;10.07;6.85;;;;;;;;;;5032680;28;20034;-80
2024/03/17 07:38:53;;;;;;;9.05;6.72;;;;;;;;;;5013577;28;20056;-81
2024/03/17 07:41:19;;;;;;;8.63;5.97;;;;;;;;;;5002085;28;20049;-81
2024/03/17 07:43:45;;;;;;;8.32;6.53;;;;;;;;;;4997543;28;20062;-81
2024/03/17 07:46:13;;;;;;;8.43;5.70;;;;;;;;;;4995897;28;20058;-81
2024/03/17 07:48:40;;;;;;;7.85;6.40;;;;;;;;;;4997586;28;20057;-81
2024/03/17 07:51:06;;;;;;;7.70;6.25;;;;;;;;;;4993937;28;20500;-81
2024/03/17 07:53:35;;;;;;;10.48;5.80;;;;;;;;;;4996016;28;20057;-82
2024/03/17 07:56:03;;;;;;;7.43;5.72;;;;;;;;;;4996358;28;20053;-80
2024/03/17 07:58:29;;;;;;;8.23;5.72;;;;;;;;;;4997387;28;20057;-81
2024/03/17 08:01:01;;;;;;;10.05;5.97;;;;;;;;;;5001509;28;20432;-80
2024/03/17 08:03:28;;;;;;;11.38;6.80;;;;;;;;;;5004241;28;20057;-81
2024/03/17 08:05:53;;;;;;;6.82;5.60;;;;;;;;;;5021748;28;20508;-81
2024/03/17 08:08:19;;;;;;;6.88;5.28;;;;;;;;;;5005667;28;20134;-81
2024/03/17 08:10:45;;;;;;;7.97;5.72;;;;;;;;;;5006659;28;20053;-82
2024/03/17 08:13:10;;;;;;;8.15;6.40;;;;;;;;;;5023249;28;20084;-82
2024/03/17 08:15:36;;;;;;;6.00;5.40;;;;;;;;;;5021655;28;20570;-81
2024/03/17 08:18:03;;;;;;;8.05;5.43;;;;;;;;;;5002051;28;20516;-81
2024/03/17 08:20:29;;;;;;;5.82;5.00;;;;;;;;;;5022679;28;20049;-82
2024/03/17 08:22:55;;;;;;;8.90;5.82;;;;;;;;;;5005218;28;20069;-81
2024/03/17 08:25:20;;;;;;;7.47;5.47;;;;;;;;;;5007238;28;20046;-82
2024/03/17 08:27:46;;;;;;;7.38;5.72;;;;;;;;;;5007413;28;20046;-82
2024/03/17 08:30:13;;;;;;;6.28;5.38;;;;;;;;;;5007695;28;20053;-81
2024/03/17 08:32:39;;;;;;;6.50;4.72;;;;;;;;;;5040540;28;20413;-82
2024/03/17 08:35:05;;;;;;;6.25;5.18;;;;;;;;;;5024954;28;20050;-82
2024/03/17 08:37:31;;;;;;;6.85;4.68;;;;;;;;;;5041367;28;20150;-82
2024/03/17 08:39:57;;;;;;;5.85;4.30;;;;;;;;;;5041859;28;20066;-82
2024/03/17 08:42:22;;;;;;;5.63;4.38;;;;;;;;;;5025233;28;20065;-82
2024/03/17 08:44:48;;;;;;;7.90;5.32;;;;;;;;;;5008098;28;20470;-81
2024/03/17 08:47:14;;;;;;;6.68;4.30;;;;;;;;;;5023345;28;20088;-82
2024/03/17 08:49:39;;;;;;;4.82;4.28;;;;;;;;;;5023361;28;20151;-82
2024/03/17 08:52:05;;;;;;;4.55;4.13;;;;;;;;;;5002369;28;20531;-83
2024/03/17 08:54:30;;;;;;;5.50;4.75;;;;;;;;;;5004422;28;20050;-82
2024/03/17 08:56:56;;;;;;;6.00;4.40;;;;;;;;;;5001086;28;20061;-82
2024/03/17 08:59:22;;;;;;;6.90;4.78;;;;;;;;;;5000714;28;20058;-81
2024/03/17 09:01:47;;;;;;;5.57;4.68;;;;;;;;;;5017684;28;20062;-82
2024/03/17 09:04:13;;;;;;;6.35;5.40;;;;;;;;;;4969036;28;20054;-82
2024/03/17 09:06:38;;;;;;;10.40;5.95;;;;;;;;;;5003220;28;20061;-82
2024/03/17 09:09:06;;;;;;;6.40;5.05;;;;;;;;;;5016881;28;20054;-82
2024/03/17 09:11:31;;;;;;;7.22;5.03;;;;;;;;;;4997379;28;20057;-82
2024/03/17 09:13:58;;;;;;;6.68;4.68;;;;;;;;;;5000724;28;20122;-82
2024/03/17 09:16:25;;;;;;;6.85;5.05;;;;;;;;;;5019821;28;20088;-81
2024/03/17 09:18:51;;;;;;;6.53;5.15;;;;;;;;;;4999638;28;20432;-82
2024/03/17 09:21:17;;;;;;;6.07;4.82;;;;;;;;;;5002010;28;20129;-82
2024/03/17 09:23:43;;;;;;;5.50;4.88;;;;;;;;;;5000902;28;20051;-82
2024/03/17 09:26:09;;;;;;;6.82;5.13;;;;;;;;;;4971422;28;20058;-82
2024/03/17 09:28:35;;;;;;;5.88;3.78;;;;;;;;;;5024167;28;20054;-83
2024/03/17 09:31:01;;;;;;;12.45;6.75;;;;;;;;;;4991362;28;20054;-83
2024/03/17 09:33:27;;;;;;;5.05;4.55;;;;;;;;;;5006862;28;20111;-82
2024/03/17 09:35:56;;;;;;;4.88;3.75;;;;;;;;;;5005371;28;20064;-82
2024/03/17 09:38:22;;;;;;;5.10;4.07;;;;;;;;;;5002001;28;20058;-82
2024/03/17 09:40:51;;;;;;;4.68;4.13;;;;;;;;;;4988901;28;20062;-83
2024/03/17 09:43:16;;;;;;;4.20;3.78;;;;;;;;;;5015409;28;20046;-82
2024/03/17 09:45:42;;;;;;;5.35;4.47;;;;;;;;;;5006092;28;20116;-82
2024/03/17 09:48:08;;;;;;;3.83;3.42;;;;;;;;;;5003966;28;20129;-81
2024/03/17 09:50:34;;;;;;;4.60;3.95;;;;;;;;;;4988755;28;20061;-81
2024/03/17 09:52:59;;;;;;;5.93;3.40;;;;;;;;;;5005183;28;20045;-82
2024/03/17 09:55:25;;;;;;;8.13;4.88;;;;;;;;;;5013514;28;20061;-82
2024/03/17 09:57:51;;;;;;;4.95;4.45;;;;;;;;;;5002294;28;20074;-82
2024/03/17 10:00:16;;;;;;;4.88;4.38;;;;;;;;;;5020143;28;20058;-82
2024/03/17 10:02:45;;;;;;;4.85;3.65;;;;;;;;;;5004648;28;20061;-81
2024/03/17 10:05:18;;;;;;;4.57;3.75;;;;;;;;;;5020973;28;20064;-81
2024/03/17 10:07:43;;;;;;;4.40;3.80;;;;;;;;;;5004094;28;20050;-81
2024/03/17 10:10:12;;;;;;;5.95;3.97;;;;;;;;;;5018394;28;20046;-81
2024/03/17 10:12:38;;;;;;;6.43;3.38;;;;;;;;;;5018280;28;20131;-82
2024/03/17 10:15:04;;;;;;;4.30;3.60;;;;;;;;;;5018496;28;20050;-82
2024/03/17 10:17:31;;;;;;;4.70;3.55;;;;;;;;;;5005163;28;20058;-81
2024/03/17 10:20:23;;;;;;;3.47;3.10;;;;;;;;;;5004403;28;20053;-81
2024/03/17 10:23:05;;;;;;;4.65;2.65;;;;;;;;;;5001772;28;20428;-80
2024/03/17 10:25:32;;;;;;;3.78;3.40;;;;;;;;;;5004587;28;20057;-81
2024/03/17 10:27:58;;;;;;;4.50;2.80;;;;;;;;;;5020060;28;20125;-81
2024/03/17 10:30:26;;;;;;;4.72;3.05;;;;;;;;;;5004178;28;20467;-82
2024/03/17 10:32:54;;;;;;;3.45;3.03;;;;;;;;;;5004187;28;20050;-81
2024/03/17 10:35:46;;;;;;;4.20;2.75;;;;;;;;;;5004088;28;20046;-81
2024/03/17 10:38:12;;;;;;;3.72;3.30;;;;;;;;;;5001735;28;20062;-81
2024/03/17 10:40:38;;;;;;;6.55;4.03;;;;;;;;;;5020482;28;20057;-81
2024/03/17 10:43:04;;;;;;;3.83;3.30;;;;;;;;;;5003479;28;20064;-81
2024/03/17 10:45:31;;;;;;;6.35;2.72;;;;;;;;;;5003084;28;20061;-82
2024/03/17 10:48:00;;;;;;;3.28;2.90;;;;;;;;;;5000139;28;20077;-82
2024/03/17 10:50:26;;;;;;;5.32;3.30;;;;;;;;;;4990866;28;20109;-82
2024/03/17 10:52:52;;;;;;;2.95;2.33;;;;;;;;;;5001705;28;20057;-82
2024/03/17 10:55:27;;;;;;;4.05;2.67;;;;;;;;;;5001181;28;20058;-81
2024/03/17 10:57:55;;;;;;;3.28;2.63;;;;;;;;;;5021176;28;20058;-81
2024/03/17 11:00:29;;;;;;;3.88;3.00;;;;;;;;;;5005057;28;20065;-81
2024/03/17 11:02:58;;;;;;;6.00;3.00;;;;;;;;;;5020553;28;20058;-80
2024/03/17 11:05:24;;;;;;;3.95;2.65;;;;;;;;;;5045652;28;20064;-80
2024/03/17 11:07:51;;;;;;;4.03;2.80;;;;;;;;;;5039973;28;20046;-80
2024/03/17 11:10:20;;;;;;;4.93;2.53;;;;;;;;;;5005980;28;20042;-81
2024/03/17 11:13:06;;;;;;;3.38;2.42;;;;;;;;;;5021488;28;20050;-81
2024/03/17 11:15:38;;;;;;;3.45;2.20;;;;;;;;;;5014694;28;20049;-80
2024/03/17 11:18:09;;;;;;;3.97;2.90;;;;;;;;;;5004224;28;20054;-81
2024/03/17 11:20:39;;;;;;;2.67;2.40;;;;;;;;;;5003716;28;20062;-81
2024/03/17 11:23:05;;;;;;;3.53;2.20;;;;;;;;;;5001272;28;20058;-81
2024/03/17 11:25:40;;;;;;;3.08;2.70;;;;;;;;;;4988374;28;20069;-81
2024/03/17 11:28:12;;;;;;;4.00;2.50;;;;;;;;;;5001268;28;20053;-81
2024/03/17 11:30:43;;;;;;;3.22;2.83;;;;;;;;;;5004005;28;20049;-81
2024/03/17 11:33:28;;;;;;;3.75;2.65;;;;;;;;;;5003455;28;20049;-82
2024/03/17 11:36:12;;;;;;;2.58;2.15;;;;;;;;;;5003921;28;20041;-81
2024/03/17 11:39:03;;;;;;;4.55;2.95;;;;;;;;;;5005685;28;20065;-81
2024/03/17 11:41:34;;;;;;;2.53;2.22;;;;;;;;;;5004709;28;20054;-82
2024/03/17 11:44:18;;;;;;;4.85;2.40;;;;;;;;;;5004245;28;20046;-82
2024/03/17 11:46:44;;;;;;;3.58;2.83;;;;;;;;;;5006150;28;20047;-81
2024/03/17 11:49:30;;;;;;;2.97;2.67;;;;;;;;;;5001101;28;20046;-82
2024/03/17 11:51:57;;;;;;;4.53;2.70;;;;;;;;;;5003173;28;20046;-81
2024/03/17 11:54:27;;;;;;;3.15;2.55;;;;;;;;;;5003644;28;20046;-81
2024/03/17 11:56:53;;;;;;;4.70;2.30;;;;;;;;;;5000311;28;20108;-81
2024/03/17 11:59:19;;;;;;;4.07;2.20;;;;;;;;;;5002354;28;20125;-81
2024/03/17 12:01:51;;;;;;;2.45;2.03;;;;;;;;;;5036532;28;20120;-81
2024/03/17 12:04:18;;;;;;;2.58;2.10;;;;;;;;;;5019857;28;20057;-81
2024/03/17 12:06:47;;;;;;;2.78;2.47;;;;;;;;;;5003522;28;20089;-81
2024/03/17 12:09:24;;;;;;;2.70;2.28;;;;;;;;;;5002394;28;20050;-81
2024/03/17 12:12:00;;;;;;;1.92;1.83;;;;;;;;;;5019867;28;20104;-81
2024/03/17 12:14:26;;;;;;;3.53;2.30;;;;;;;;;;5007100;28;20046;-81
2024/03/17 12:16:52;;;;;;;3.05;2.42;;;;;;;;;;5006416;28;20045;-80
2024/03/17 12:19:18;;;;;;;3.33;2.42;;;;;;;;;;5005839;28;20061;-81
2024/03/17 12:21:44;;;;;;;4.03;2.80;;;;;;;;;;5001084;28;20050;-81
2024/03/17 12:24:21;;;;;;;3.10;2.50;;;;;;;;;;5001480;28;20061;-81
2024/03/17 12:26:47;;;;;;;4.22;2.55;;;;;;;;;;4999605;28;20050;-81
2024/03/17 12:29:22;;;;;;;2.75;2.00;;;;;;;;;;4999685;28;20054;-81
2024/03/17 12:31:48;;;;;;;4.07;2.67;;;;;;;;;;5003810;28;20061;-81
2024/03/17 12:34:14;;;;;;;2.55;2.10;;;;;;;;;;5018849;28;20051;-81
2024/03/17 12:36:39;;;;;;;6.63;2.67;;;;;;;;;;5000312;28;20085;-81
2024/03/17 12:39:18;;;;;;;3.05;2.70;;;;;;;;;;5007066;28;20096;-81
2024/03/17 12:41:45;;;;;;;2.53;2.05;;;;;;;;;;4995325;28;20062;-80
2024/03/17 12:44:21;;;;;;;3.83;2.55;;;;;;;;;;4996006;28;20054;-81
2024/03/17 12:46:46;;;;;;;4.65;2.50;;;;;;;;;;5014714;28;20757;-81
2024/03/17 12:49:12;;;;;;;4.90;2.40;;;;;;;;;;4999568;28;20045;-81
2024/03/17 12:51:40;;;;;;;5.20;2.53;;;;;;;;;;4999511;28;20116;-80
2024/03/17 12:54:12;;;;;;;2.28;2.08;;;;;;;;;;4999436;28;20046;-80
2024/03/17 13:02:09;;;;;;;3.78;2.85;;;;;;;;;;5014688;28;20054;-80
2024/03/17 13:04:35;;;;;;;3.05;2.50;;;;;;;;;;4998856;28;20058;-80
2024/03/17 13:07:09;;;;;;;3.97;2.45;;;;;;;;;;5018930;28;20038;-80
2024/03/17 13:09:34;;;;;;;4.65;2.67;;;;;;;;;;5017371;28;20058;-77
2024/03/17 13:12:00;;;;;;;5.10;2.53;;;;;;;;;;4999169;28;20081;-77
2024/03/17 13:14:25;;;;;;;3.45;2.75;;;;;;;;;;4998934;28;20050;-76
2024/03/17 13:16:51;;;;;;;4.57;2.40;;;;;;;;;;4983307;28;20054;-79
2024/03/17 13:19:16;;;;;;;3.03;2.72;;;;;;;;;;4996667;28;20424;-77
2024/03/17 13:21:42;;;;;;;3.97;2.38;;;;;;;;;;4997380;28;20084;-79
2024/03/17 13:24:08;;;;;;;4.90;2.83;;;;;;;;;;4982028;28;20081;-80
2024/03/17 13:26:33;;;;;;;5.88;2.67;;;;;;;;;;4985085;28;20064;-81
2024/03/17 13:28:59;;;;;;;3.10;2.63;;;;;;;;;;4998895;28;20056;-85
2024/03/17 13:31:25;;;;;;;3.45;2.55;;;;;;;;;;4979791;28;20217;-84
2024/03/17 13:33:51;;;;;;;3.38;2.50;;;;;;;;;;5015297;28;20429;-81
2024/03/17 13:36:17;;;;;;;5.53;2.78;;;;;;;;;;4999207;28;20045;-80
2024/03/17 13:38:42;;;;;;;3.72;2.17;;;;;;;;;;5002814;28;20045;-79
2024/03/17 13:41:08;;;;;;;3.33;2.47;;;;;;;;;;4991512;28;20526;-82
2024/03/17 13:43:34;;;;;;;3.67;1.65;;;;;;;;;;5017457;28;20476;-79
2024/03/17 13:46:00;;;;;;;2.40;1.95;;;;;;;;;;4996859;28;20142;-86
2024/03/17 13:48:26;;;;;;;3.80;2.13;;;;;;;;;;4999102;28;20056;-83
2024/03/17 13:50:51;;;;;;;3.45;2.55;;;;;;;;;;5021173;28;20148;-85
2024/03/17 13:53:18;;;;;;;4.00;3.03;;;;;;;;;;5048656;28;20054;-85
2024/03/17 13:55:43;;;;;;;2.80;2.33;;;;;;;;;;5030346;28;20058;-81
2024/03/17 13:58:09;;;;;;;4.00;2.25;;;;;;;;;;5034705;28;20119;-80
2024/03/17 14:00:37;;;;;;;3.65;2.08;;;;;;;;;;5035065;28;20168;-81
2024/03/17 14:03:03;;;;;;;3.00;2.10;;;;;;;;;;5020024;28;20054;-80
2024/03/17 14:05:29;;;;;;;5.65;2.45;;;;;;;;;;5036930;28;20523;-81
2024/03/17 14:07:55;;;;;;;3.50;2.50;;;;;;;;;;5018404;28;20058;-81
2024/03/17 14:10:21;;;;;;;2.97;2.30;;;;;;;;;;5021412;28;20080;-81
2024/03/17 14:12:46;;;;;;;2.63;2.08;;;;;;;;;;5001224;28;20046;-79
2024/03/17 14:15:13;;;;;;;3.92;2.20;;;;;;;;;;5003445;28;20108;-82
2024/03/17 14:17:39;;;;;;;3.50;2.28;;;;;;;;;;4989226;28;20119;-81
2024/03/17 14:20:09;;;;;;;3.13;2.03;;;;;;;;;;5003964;28;20393;-81
2024/03/17 14:22:38;;;;;;;3.13;2.10;;;;;;;;;;5006257;28;20370;-81
2024/03/17 14:25:07;;;;;;;3.08;2.20;;;;;;;;;;5023067;28;20068;-82
2024/03/17 14:27:32;;;;;;;3.70;2.15;;;;;;;;;;5006258;28;20072;-82
2024/03/17 14:29:58;;;;;;;3.47;1.98;;;;;;;;;;4997644;28;20472;-82
2024/03/17 14:32:23;;;;;;;7.47;2.25;;;;;;;;;;4982666;28;20527;-82
2024/03/17 14:34:49;;;;;;;3.50;2.13;;;;;;;;;;5016683;28;20064;-81
2024/03/17 14:37:15;;;;;;;2.80;2.10;;;;;;;;;;5022214;28;20149;-82
2024/03/17 14:39:40;;;;;;;4.45;2.25;;;;;;;;;;4984132;28;20389;-83
2024/03/17 14:42:07;;;;;;;4.40;2.47;;;;;;;;;;4995867;28;20057;-82